sensor_id;sensor_type;location;lat;lon;timestamp;temperature;humidity
72206;DHT22;60111;48.286;7.812;2023-07-13T00:01:01;20.60;63.30
72206;DHT22;60111;48.286;7.812;2023-07-13T00:03:34;20.60;63.50
72206;DHT22;60111;48.286;7.812;2023-07-13T00:06:07;20.60;64.40
72206;DHT22;60111;48.286;7.812;2023-07-13T00:08:40;20.60;65.00
72206;DHT22;60111;48.286;7.812;2023-07-13T00:11:13;20.50;65.30
72206;DHT22;60111;48.286;7.812;2023-07-13T00:13:46;20.50;64.80
72206;DHT22;60111;48.286;7.812;2023-07-13T00:16:18;20.50;65.40
72206;DHT22;60111;48.286;7.812;2023-07-13T00:18:51;20.50;65.70
72206;DHT22;60111;48.286;7.812;2023-07-13T00:21:24;20.50;66.70
72206;DHT22;60111;48.286;7.812;2023-07-13T00:23:57;20.40;67.60
72206;DHT22;60111;48.286;7.812;2023-07-13T00:26:30;20.30;68.30
72206;DHT22;60111;48.286;7.812;2023-07-13T00:29:04;20.20;68.80
72206;DHT22;60111;48.286;7.812;2023-07-13T00:31:38;20.20;70.00
72206;DHT22;60111;48.286;7.812;2023-07-13T00:34:11;20.20;69.90
72206;DHT22;60111;48.286;7.812;2023-07-13T00:36:44;20.20;70.10
72206;DHT22;60111;48.286;7.812;2023-07-13T00:39:18;20.20;69.40
72206;DHT22;60111;48.286;7.812;2023-07-13T00:41:52;20.20;69.00
72206;DHT22;60111;48.286;7.812;2023-07-13T00:44:25;20.10;68.20
72206;DHT22;60111;48.286;7.812;2023-07-13T00:46:58;20.10;68.90
72206;DHT22;60111;48.286;7.812;2023-07-13T00:49:32;20.10;69.10
72206;DHT22;60111;48.286;7.812;2023-07-13T00:52:08;20.10;67.60
72206;DHT22;60111;48.286;7.812;2023-07-13T00:54:43;20.00;66.30
72206;DHT22;60111;48.286;7.812;2023-07-13T00:57:18;20.00;66.60
72206;DHT22;60111;48.286;7.812;2023-07-13T00:59:54;19.90;67.70
72206;DHT22;60111;48.286;7.812;2023-07-13T01:02:28;19.80;68.80
72206;DHT22;60111;48.286;7.812;2023-07-13T01:05:01;19.70;68.40
72206;DHT22;60111;48.286;7.812;2023-07-13T01:07:34;19.70;69.10
72206;DHT22;60111;48.286;7.812;2023-07-13T01:10:08;19.70;69.50
72206;DHT22;60111;48.286;7.812;2023-07-13T01:12:40;19.80;66.50
72206;DHT22;60111;48.286;7.812;2023-07-13T01:18:21;19.70;68.30
72206;DHT22;60111;48.286;7.812;2023-07-13T01:20:54;19.60;69.30
72206;DHT22;60111;48.286;7.812;2023-07-13T01:23:29;19.60;69.90
72206;DHT22;60111;48.286;7.812;2023-07-13T01:26:02;19.50;70.10
72206;DHT22;60111;48.286;7.812;2023-07-13T01:28:34;19.50;70.10
72206;DHT22;60111;48.286;7.812;2023-07-13T01:31:08;19.50;69.80
72206;DHT22;60111;48.286;7.812;2023-07-13T01:33:42;19.40;69.90
72206;DHT22;60111;48.286;7.812;2023-07-13T01:36:14;19.30;70.00
72206;DHT22;60111;48.286;7.812;2023-07-13T01:38:48;19.30;70.70
72206;DHT22;60111;48.286;7.812;2023-07-13T01:41:20;19.20;70.40
72206;DHT22;60111;48.286;7.812;2023-07-13T01:43:53;19.30;70.30
72206;DHT22;60111;48.286;7.812;2023-07-13T01:46:25;19.30;70.70
72206;DHT22;60111;48.286;7.812;2023-07-13T01:48:58;19.30;70.50
72206;DHT22;60111;48.286;7.812;2023-07-13T01:51:31;19.20;70.60
72206;DHT22;60111;48.286;7.812;2023-07-13T01:54:03;19.20;70.80
72206;DHT22;60111;48.286;7.812;2023-07-13T01:56:36;19.20;72.00
72206;DHT22;60111;48.286;7.812;2023-07-13T01:59:09;19.20;71.50
72206;DHT22;60111;48.286;7.812;2023-07-13T02:01:42;19.10;71.70
72206;DHT22;60111;48.286;7.812;2023-07-13T02:04:14;19.20;71.60
72206;DHT22;60111;48.286;7.812;2023-07-13T02:06:48;19.20;71.60
72206;DHT22;60111;48.286;7.812;2023-07-13T02:09:21;19.20;72.00
72206;DHT22;60111;48.286;7.812;2023-07-13T02:11:53;19.10;71.90
72206;DHT22;60111;48.286;7.812;2023-07-13T02:14:26;19.00;71.70
72206;DHT22;60111;48.286;7.812;2023-07-13T02:16:58;18.90;71.70
72206;DHT22;60111;48.286;7.812;2023-07-13T02:19:31;18.90;72.30
72206;DHT22;60111;48.286;7.812;2023-07-13T02:22:04;18.80;72.70
72206;DHT22;60111;48.286;7.812;2023-07-13T02:24:37;18.80;72.80
72206;DHT22;60111;48.286;7.812;2023-07-13T02:27:10;18.70;73.20
72206;DHT22;60111;48.286;7.812;2023-07-13T02:29:42;18.60;73.90
72206;DHT22;60111;48.286;7.812;2023-07-13T02:32:15;18.60;74.10
72206;DHT22;60111;48.286;7.812;2023-07-13T02:34:48;18.60;73.20
72206;DHT22;60111;48.286;7.812;2023-07-13T02:37:21;18.50;72.80
72206;DHT22;60111;48.286;7.812;2023-07-13T02:39:54;18.40;74.10
72206;DHT22;60111;48.286;7.812;2023-07-13T02:42:26;18.40;74.10
72206;DHT22;60111;48.286;7.812;2023-07-13T02:44:59;18.30;74.20
72206;DHT22;60111;48.286;7.812;2023-07-13T02:47:32;18.20;74.70
72206;DHT22;60111;48.286;7.812;2023-07-13T02:50:06;18.20;74.30
72206;DHT22;60111;48.286;7.812;2023-07-13T02:52:39;18.20;73.70
72206;DHT22;60111;48.286;7.812;2023-07-13T02:55:11;18.10;73.70
72206;DHT22;60111;48.286;7.812;2023-07-13T02:57:44;18.00;74.30
72206;DHT22;60111;48.286;7.812;2023-07-13T03:00:17;18.00;74.60
72206;DHT22;60111;48.286;7.812;2023-07-13T03:02:49;17.90;74.60
72206;DHT22;60111;48.286;7.812;2023-07-13T03:05:22;17.80;73.20
72206;DHT22;60111;48.286;7.812;2023-07-13T03:07:55;17.70;74.70
72206;DHT22;60111;48.286;7.812;2023-07-13T03:10:27;17.70;73.90
72206;DHT22;60111;48.286;7.812;2023-07-13T03:13:00;17.60;73.90
72206;DHT22;60111;48.286;7.812;2023-07-13T03:15:33;17.60;74.80
72206;DHT22;60111;48.286;7.812;2023-07-13T03:18:05;17.60;75.50
72206;DHT22;60111;48.286;7.812;2023-07-13T03:20:38;17.50;74.90
72206;DHT22;60111;48.286;7.812;2023-07-13T03:23:10;17.50;74.50
72206;DHT22;60111;48.286;7.812;2023-07-13T03:25:43;17.50;73.20
72206;DHT22;60111;48.286;7.812;2023-07-13T03:28:16;17.50;73.80
72206;DHT22;60111;48.286;7.812;2023-07-13T03:30:49;17.40;74.60
72206;DHT22;60111;48.286;7.812;2023-07-13T03:33:21;17.40;74.60
72206;DHT22;60111;48.286;7.812;2023-07-13T03:35:54;17.40;74.00
72206;DHT22;60111;48.286;7.812;2023-07-13T03:38:26;17.40;72.70
72206;DHT22;60111;48.286;7.812;2023-07-13T03:40:59;17.30;72.60
72206;DHT22;60111;48.286;7.812;2023-07-13T03:43:32;17.20;73.10
72206;DHT22;60111;48.286;7.812;2023-07-13T03:46:05;17.30;75.00
72206;DHT22;60111;48.286;7.812;2023-07-13T03:48:37;17.30;73.10
72206;DHT22;60111;48.286;7.812;2023-07-13T03:51:13;17.20;73.00
72206;DHT22;60111;48.286;7.812;2023-07-13T03:53:47;17.20;74.20
72206;DHT22;60111;48.286;7.812;2023-07-13T03:56:19;17.30;75.20
72206;DHT22;60111;48.286;7.812;2023-07-13T03:58:52;17.30;75.10
72206;DHT22;60111;48.286;7.812;2023-07-13T04:01:25;17.30;74.40
72206;DHT22;60111;48.286;7.812;2023-07-13T04:03:58;17.30;74.50
72206;DHT22;60111;48.286;7.812;2023-07-13T04:06:31;17.30;74.90
72206;DHT22;60111;48.286;7.812;2023-07-13T04:09:05;17.30;74.50
72206;DHT22;60111;48.286;7.812;2023-07-13T04:11:37;17.40;75.00
72206;DHT22;60111;48.286;7.812;2023-07-13T04:14:10;17.40;74.70
72206;DHT22;60111;48.286;7.812;2023-07-13T04:16:43;17.40;74.50
72206;DHT22;60111;48.286;7.812;2023-07-13T04:19:15;17.40;75.10
72206;DHT22;60111;48.286;7.812;2023-07-13T04:21:49;17.40;75.10
72206;DHT22;60111;48.286;7.812;2023-07-13T04:24:21;17.40;74.90
72206;DHT22;60111;48.286;7.812;2023-07-13T04:26:54;17.40;74.90
72206;DHT22;60111;48.286;7.812;2023-07-13T04:29:28;17.40;75.20
72206;DHT22;60111;48.286;7.812;2023-07-13T04:32:01;17.40;74.90
72206;DHT22;60111;48.286;7.812;2023-07-13T04:34:34;17.40;74.70
72206;DHT22;60111;48.286;7.812;2023-07-13T04:37:07;17.40;74.60
72206;DHT22;60111;48.286;7.812;2023-07-13T04:39:39;17.30;74.40
72206;DHT22;60111;48.286;7.812;2023-07-13T04:42:14;17.30;75.10
72206;DHT22;60111;48.286;7.812;2023-07-13T04:44:50;17.30;75.90
72206;DHT22;60111;48.286;7.812;2023-07-13T04:47:23;17.20;77.00
72206;DHT22;60111;48.286;7.812;2023-07-13T04:49:56;17.10;77.50
72206;DHT22;60111;48.286;7.812;2023-07-13T04:52:29;17.20;77.70
72206;DHT22;60111;48.286;7.812;2023-07-13T04:55:01;17.20;77.90
72206;DHT22;60111;48.286;7.812;2023-07-13T04:57:35;17.20;77.80
72206;DHT22;60111;48.286;7.812;2023-07-13T05:00:08;17.20;78.00
72206;DHT22;60111;48.286;7.812;2023-07-13T05:02:44;17.30;77.90
72206;DHT22;60111;48.286;7.812;2023-07-13T05:05:17;17.30;77.60
72206;DHT22;60111;48.286;7.812;2023-07-13T05:07:50;17.30;76.30
72206;DHT22;60111;48.286;7.812;2023-07-13T05:10:23;17.20;75.80
72206;DHT22;60111;48.286;7.812;2023-07-13T05:12:55;17.20;74.50
72206;DHT22;60111;48.286;7.812;2023-07-13T05:15:28;17.30;75.50
72206;DHT22;60111;48.286;7.812;2023-07-13T05:18:00;17.30;76.00
72206;DHT22;60111;48.286;7.812;2023-07-13T05:20:33;17.30;75.50
72206;DHT22;60111;48.286;7.812;2023-07-13T05:23:06;17.40;75.70
72206;DHT22;60111;48.286;7.812;2023-07-13T05:25:38;17.40;75.80
72206;DHT22;60111;48.286;7.812;2023-07-13T05:28:11;17.50;75.80
72206;DHT22;60111;48.286;7.812;2023-07-13T05:30:48;17.60;74.80
72206;DHT22;60111;48.286;7.812;2023-07-13T05:33:21;17.60;73.10
72206;DHT22;60111;48.286;7.812;2023-07-13T05:35:54;17.70;73.90
72206;DHT22;60111;48.286;7.812;2023-07-13T05:38:27;17.80;74.30
72206;DHT22;60111;48.286;7.812;2023-07-13T05:41:00;17.90;74.50
72206;DHT22;60111;48.286;7.812;2023-07-13T05:43:33;18.00;73.30
72206;DHT22;60111;48.286;7.812;2023-07-13T05:46:06;18.10;73.30
72206;DHT22;60111;48.286;7.812;2023-07-13T05:48:39;18.20;73.60
72206;DHT22;60111;48.286;7.812;2023-07-13T05:51:12;18.30;73.50
72206;DHT22;60111;48.286;7.812;2023-07-13T05:53:45;18.40;73.10
72206;DHT22;60111;48.286;7.812;2023-07-13T05:56:17;18.40;72.70
72206;DHT22;60111;48.286;7.812;2023-07-13T05:58:50;18.30;72.80
72206;DHT22;60111;48.286;7.812;2023-07-13T06:01:23;18.40;73.00
72206;DHT22;60111;48.286;7.812;2023-07-13T06:03:55;18.50;73.10
72206;DHT22;60111;48.286;7.812;2023-07-13T06:06:28;18.60;72.20
72206;DHT22;60111;48.286;7.812;2023-07-13T06:09:00;18.70;72.60
72206;DHT22;60111;48.286;7.812;2023-07-13T06:11:33;18.80;71.70
72206;DHT22;60111;48.286;7.812;2023-07-13T06:14:06;19.00;71.90
72206;DHT22;60111;48.286;7.812;2023-07-13T06:16:40;19.10;71.60
72206;DHT22;60111;48.286;7.812;2023-07-13T06:19:13;19.20;69.60
72206;DHT22;60111;48.286;7.812;2023-07-13T06:21:45;19.30;69.30
72206;DHT22;60111;48.286;7.812;2023-07-13T06:24:18;19.40;69.20
72206;DHT22;60111;48.286;7.812;2023-07-13T06:26:51;19.40;67.10
72206;DHT22;60111;48.286;7.812;2023-07-13T06:29:23;19.50;66.80
72206;DHT22;60111;48.286;7.812;2023-07-13T06:31:56;19.50;68.00
72206;DHT22;60111;48.286;7.812;2023-07-13T06:34:28;19.60;69.60
72206;DHT22;60111;48.286;7.812;2023-07-13T06:37:01;19.80;68.30
72206;DHT22;60111;48.286;7.812;2023-07-13T06:39:34;19.90;66.60
72206;DHT22;60111;48.286;7.812;2023-07-13T06:42:06;19.90;64.70
72206;DHT22;60111;48.286;7.812;2023-07-13T06:44:39;20.00;63.80
72206;DHT22;60111;48.286;7.812;2023-07-13T06:47:12;20.10;62.90
72206;DHT22;60111;48.286;7.812;2023-07-13T06:49:44;20.10;63.30
72206;DHT22;60111;48.286;7.812;2023-07-13T06:52:17;20.10;65.70
72206;DHT22;60111;48.286;7.812;2023-07-13T06:54:49;20.20;64.60
72206;DHT22;60111;48.286;7.812;2023-07-13T06:57:22;20.20;63.80
72206;DHT22;60111;48.286;7.812;2023-07-13T06:59:54;20.30;63.20
72206;DHT22;60111;48.286;7.812;2023-07-13T07:02:27;20.40;59.70
72206;DHT22;60111;48.286;7.812;2023-07-13T07:05:00;20.60;59.30
72206;DHT22;60111;48.286;7.812;2023-07-13T07:07:32;20.80;59.90
72206;DHT22;60111;48.286;7.812;2023-07-13T07:10:06;21.00;59.80
72206;DHT22;60111;48.286;7.812;2023-07-13T07:12:38;21.20;60.10
72206;DHT22;60111;48.286;7.812;2023-07-13T07:15:11;21.30;59.10
72206;DHT22;60111;48.286;7.812;2023-07-13T07:17:44;21.40;57.70
72206;DHT22;60111;48.286;7.812;2023-07-13T07:20:17;21.60;55.10
72206;DHT22;60111;48.286;7.812;2023-07-13T07:22:49;21.70;56.10
72206;DHT22;60111;48.286;7.812;2023-07-13T07:25:22;21.70;57.20
72206;DHT22;60111;48.286;7.812;2023-07-13T07:27:55;21.80;54.30
72206;DHT22;60111;48.286;7.812;2023-07-13T07:30:27;21.80;52.40
72206;DHT22;60111;48.286;7.812;2023-07-13T07:33:00;21.80;58.10
72206;DHT22;60111;48.286;7.812;2023-07-13T07:35:33;21.90;53.10
72206;DHT22;60111;48.286;7.812;2023-07-13T07:38:05;21.90;55.90
72206;DHT22;60111;48.286;7.812;2023-07-13T07:40:41;22.00;54.50
72206;DHT22;60111;48.286;7.812;2023-07-13T07:43:13;22.00;53.10
72206;DHT22;60111;48.286;7.812;2023-07-13T07:45:46;22.00;54.00
72206;DHT22;60111;48.286;7.812;2023-07-13T07:48:19;22.10;50.20
72206;DHT22;60111;48.286;7.812;2023-07-13T07:50:52;22.10;51.60
72206;DHT22;60111;48.286;7.812;2023-07-13T07:53:25;22.20;50.90
72206;DHT22;60111;48.286;7.812;2023-07-13T07:55:57;22.30;50.60
72206;DHT22;60111;48.286;7.812;2023-07-13T07:58:30;22.30;51.10
72206;DHT22;60111;48.286;7.812;2023-07-13T08:01:08;22.30;50.20
72206;DHT22;60111;48.286;7.812;2023-07-13T08:03:37;22.40;49.80
72206;DHT22;60111;48.286;7.812;2023-07-13T08:06:10;22.40;48.80
72206;DHT22;60111;48.286;7.812;2023-07-13T08:08:42;22.50;49.90
72206;DHT22;60111;48.286;7.812;2023-07-13T08:11:15;22.60;48.90
72206;DHT22;60111;48.286;7.812;2023-07-13T08:13:49;22.60;48.20
72206;DHT22;60111;48.286;7.812;2023-07-13T08:16:22;22.60;48.90
72206;DHT22;60111;48.286;7.812;2023-07-13T08:18:55;22.80;47.40
72206;DHT22;60111;48.286;7.812;2023-07-13T08:21:27;22.90;48.90
72206;DHT22;60111;48.286;7.812;2023-07-13T08:24:00;22.90;47.30
72206;DHT22;60111;48.286;7.812;2023-07-13T08:26:32;23.00;46.80
72206;DHT22;60111;48.286;7.812;2023-07-13T08:29:05;23.20;48.40
72206;DHT22;60111;48.286;7.812;2023-07-13T08:31:38;23.30;48.90
72206;DHT22;60111;48.286;7.812;2023-07-13T08:34:10;23.50;47.50
72206;DHT22;60111;48.286;7.812;2023-07-13T08:36:43;23.60;46.30
72206;DHT22;60111;48.286;7.812;2023-07-13T08:39:16;23.80;47.50
72206;DHT22;60111;48.286;7.812;2023-07-13T08:41:52;24.00;46.30
72206;DHT22;60111;48.286;7.812;2023-07-13T08:45:17;23.90;47.20
72206;DHT22;60111;48.286;7.812;2023-07-13T08:47:04;23.90;44.40
72206;DHT22;60111;48.286;7.812;2023-07-13T08:49:38;23.80;44.90
72206;DHT22;60111;48.286;7.812;2023-07-13T08:52:32;23.90;46.60
72206;DHT22;60111;48.286;7.812;2023-07-13T08:55:15;24.00;47.70
72206;DHT22;60111;48.286;7.812;2023-07-13T08:57:56;24.20;44.80
72206;DHT22;60111;48.286;7.812;2023-07-13T09:00:49;24.40;46.30
72206;DHT22;60111;48.286;7.812;2023-07-13T09:03:24;24.50;44.20
72206;DHT22;60111;48.286;7.812;2023-07-13T09:05:59;24.40;46.30
72206;DHT22;60111;48.286;7.812;2023-07-13T09:08:58;24.60;47.60
72206;DHT22;60111;48.286;7.812;2023-07-13T09:11:36;24.90;50.00
72206;DHT22;60111;48.286;7.812;2023-07-13T09:17:04;25.40;43.60
72206;DHT22;60111;48.286;7.812;2023-07-13T09:19:37;25.30;43.30
72206;DHT22;60111;48.286;7.812;2023-07-13T09:22:13;25.20;44.50
72206;DHT22;60111;48.286;7.812;2023-07-13T09:25:00;25.30;45.80
72206;DHT22;60111;48.286;7.812;2023-07-13T09:27:35;25.50;46.60
72206;DHT22;60111;48.286;7.812;2023-07-13T09:30:23;25.70;43.60
72206;DHT22;60111;48.286;7.812;2023-07-13T09:32:53;25.90;42.00
72206;DHT22;60111;48.286;7.812;2023-07-13T09:35:28;25.70;41.70
72206;DHT22;60111;48.286;7.812;2023-07-13T09:38:12;25.50;41.50
72206;DHT22;60111;48.286;7.812;2023-07-13T09:40:57;25.20;42.90
72206;DHT22;60111;48.286;7.812;2023-07-13T09:43:24;25.20;43.20
72206;DHT22;60111;48.286;7.812;2023-07-13T09:45:56;25.10;40.60
72206;DHT22;60111;48.286;7.812;2023-07-13T09:48:33;24.90;41.20
72206;DHT22;60111;48.286;7.812;2023-07-13T09:51:15;24.90;40.50
72206;DHT22;60111;48.286;7.812;2023-07-13T09:53:47;24.90;42.90
72206;DHT22;60111;48.286;7.812;2023-07-13T09:56:22;25.10;43.00
72206;DHT22;60111;48.286;7.812;2023-07-13T09:58:56;25.40;45.60
72206;DHT22;60111;48.286;7.812;2023-07-13T10:01:34;25.70;43.40
72206;DHT22;60111;48.286;7.812;2023-07-13T10:04:12;26.00;44.10
72206;DHT22;60111;48.286;7.812;2023-07-13T10:06:45;26.10;43.00
72206;DHT22;60111;48.286;7.812;2023-07-13T10:09:18;26.20;39.40
72206;DHT22;60111;48.286;7.812;2023-07-13T10:11:51;26.40;46.70
72206;DHT22;60111;48.286;7.812;2023-07-13T10:14:24;26.40;40.60
72206;DHT22;60111;48.286;7.812;2023-07-13T10:17:01;26.60;42.10
72206;DHT22;60111;48.286;7.812;2023-07-13T10:19:35;26.80;39.00
72206;DHT22;60111;48.286;7.812;2023-07-13T10:22:27;26.60;37.90
72206;DHT22;60111;48.286;7.812;2023-07-13T10:25:01;26.40;38.70
72206;DHT22;60111;48.286;7.812;2023-07-13T10:27:35;26.30;39.60
72206;DHT22;60111;48.286;7.812;2023-07-13T10:30:25;26.40;38.10
72206;DHT22;60111;48.286;7.812;2023-07-13T10:33:02;26.50;38.00
72206;DHT22;60111;48.286;7.812;2023-07-13T10:35:35;26.70;39.20
72206;DHT22;60111;48.286;7.812;2023-07-13T10:38:13;26.80;38.30
72206;DHT22;60111;48.286;7.812;2023-07-13T10:40:54;26.80;39.10
72206;DHT22;60111;48.286;7.812;2023-07-13T10:43:25;26.70;37.50
72206;DHT22;60111;48.286;7.812;2023-07-13T10:46:00;26.50;38.60
72206;DHT22;60111;48.286;7.812;2023-07-13T10:48:34;26.50;38.30
72206;DHT22;60111;48.286;7.812;2023-07-13T10:51:10;26.30;38.40
72206;DHT22;60111;48.286;7.812;2023-07-13T10:53:44;26.40;40.40
72206;DHT22;60111;48.286;7.812;2023-07-13T10:56:28;26.80;43.60
72206;DHT22;60111;48.286;7.812;2023-07-13T10:59:12;27.10;38.30
72206;DHT22;60111;48.286;7.812;2023-07-13T11:04:31;27.60;34.40
72206;DHT22;60111;48.286;7.812;2023-07-13T11:07:10;27.60;36.80
72206;DHT22;60111;48.286;7.812;2023-07-13T11:09:40;27.80;37.50
72206;DHT22;60111;48.286;7.812;2023-07-13T11:15:02;27.60;37.40
72206;DHT22;60111;48.286;7.812;2023-07-13T11:17:50;27.50;35.70
72206;DHT22;60111;48.286;7.812;2023-07-13T11:20:32;27.50;35.10
72206;DHT22;60111;48.286;7.812;2023-07-13T11:25:50;27.30;36.40
72206;DHT22;60111;48.286;7.812;2023-07-13T11:28:25;27.20;37.30
72206;DHT22;60111;48.286;7.812;2023-07-13T11:31:00;27.30;37.30
72206;DHT22;60111;48.286;7.812;2023-07-13T11:36:18;27.20;37.60
72206;DHT22;60111;48.286;7.812;2023-07-13T11:39:04;27.30;36.90
72206;DHT22;60111;48.286;7.812;2023-07-13T11:41:55;27.40;36.00
72206;DHT22;60111;48.286;7.812;2023-07-13T11:44:26;27.50;38.70
72206;DHT22;60111;48.286;7.812;2023-07-13T11:47:11;27.50;36.30
72206;DHT22;60111;48.286;7.812;2023-07-13T11:49:45;27.20;36.40
72206;DHT22;60111;48.286;7.812;2023-07-13T11:52:16;27.30;37.80
72206;DHT22;60111;48.286;7.812;2023-07-13T11:54:52;27.30;38.10
72206;DHT22;60111;48.286;7.812;2023-07-13T11:57:36;27.30;38.80
72206;DHT22;60111;48.286;7.812;2023-07-13T12:00:21;27.10;36.20
72206;DHT22;60111;48.286;7.812;2023-07-13T12:02:55;26.80;37.40
72206;DHT22;60111;48.286;7.812;2023-07-13T12:05:28;26.70;37.40
72206;DHT22;60111;48.286;7.812;2023-07-13T12:08:10;27.00;37.50
72206;DHT22;60111;48.286;7.812;2023-07-13T12:10:43;27.20;40.00
72206;DHT22;60111;48.286;7.812;2023-07-13T12:13:17;27.60;40.20
72206;DHT22;60111;48.286;7.812;2023-07-13T12:15:50;28.10;40.50
72206;DHT22;60111;48.286;7.812;2023-07-13T12:18:28;28.40;37.30
72206;DHT22;60111;48.286;7.812;2023-07-13T12:20:59;28.60;35.90
72206;DHT22;60111;48.286;7.812;2023-07-13T12:23:35;28.50;38.60
72206;DHT22;60111;48.286;7.812;2023-07-13T12:26:10;28.10;37.20
72206;DHT22;60111;48.286;7.812;2023-07-13T12:28:49;27.50;36.30
72206;DHT22;60111;48.286;7.812;2023-07-13T12:31:33;27.40;37.60
72206;DHT22;60111;48.286;7.812;2023-07-13T12:34:13;27.40;36.00
72206;DHT22;60111;48.286;7.812;2023-07-13T12:37:01;27.40;38.60
72206;DHT22;60111;48.286;7.812;2023-07-13T12:39:47;27.50;37.30
72206;DHT22;60111;48.286;7.812;2023-07-13T12:42:31;27.60;39.00
72206;DHT22;60111;48.286;7.812;2023-07-13T12:47:47;27.10;37.90
72206;DHT22;60111;48.286;7.812;2023-07-13T12:50:22;27.10;41.50
72206;DHT22;60111;48.286;7.812;2023-07-13T12:52:59;27.20;38.20
72206;DHT22;60111;48.286;7.812;2023-07-13T12:55:31;27.40;37.70
72206;DHT22;60111;48.286;7.812;2023-07-13T12:58:10;27.50;38.30
72206;DHT22;60111;48.286;7.812;2023-07-13T13:00:41;27.50;37.60
72206;DHT22;60111;48.286;7.812;2023-07-13T13:03:33;27.50;37.80
72206;DHT22;60111;48.286;7.812;2023-07-13T13:08:48;27.30;38.90
72206;DHT22;60111;48.286;7.812;2023-07-13T13:11:23;27.20;38.80
72206;DHT22;60111;48.286;7.812;2023-07-13T13:13:55;27.10;38.00
72206;DHT22;60111;48.286;7.812;2023-07-13T13:16:37;27.00;38.30
72206;DHT22;60111;48.286;7.812;2023-07-13T13:19:18;27.20;38.90
72206;DHT22;60111;48.286;7.812;2023-07-13T13:21:55;27.60;41.10
72206;DHT22;60111;48.286;7.812;2023-07-13T13:24:28;28.10;38.50
72206;DHT22;60111;48.286;7.812;2023-07-13T13:27:01;28.00;37.80
72206;DHT22;60111;48.286;7.812;2023-07-13T13:29:39;27.90;40.60
72206;DHT22;60111;48.286;7.812;2023-07-13T13:32:15;27.80;41.00
72206;DHT22;60111;48.286;7.812;2023-07-13T13:34:45;27.90;38.40
72206;DHT22;60111;48.286;7.812;2023-07-13T13:37:22;27.90;39.90
72206;DHT22;60111;48.286;7.812;2023-07-13T13:39:57;27.90;38.70
72206;DHT22;60111;48.286;7.812;2023-07-13T13:42:29;27.90;39.30
72206;DHT22;60111;48.286;7.812;2023-07-13T13:45:02;27.80;38.20
72206;DHT22;60111;48.286;7.812;2023-07-13T13:47:35;27.60;38.30
72206;DHT22;60111;48.286;7.812;2023-07-13T13:50:21;27.40;37.80
72206;DHT22;60111;48.286;7.812;2023-07-13T13:52:50;27.20;38.70
72206;DHT22;60111;48.286;7.812;2023-07-13T13:55:23;27.20;38.10
72206;DHT22;60111;48.286;7.812;2023-07-13T13:57:55;27.30;37.90
72206;DHT22;60111;48.286;7.812;2023-07-13T14:00:28;27.40;41.30
72206;DHT22;60111;48.286;7.812;2023-07-13T14:03:01;27.90;39.80
72206;DHT22;60111;48.286;7.812;2023-07-13T14:05:34;28.10;40.50
72206;DHT22;60111;48.286;7.812;2023-07-13T14:08:15;28.30;36.50
72206;DHT22;60111;48.286;7.812;2023-07-13T14:10:51;28.40;37.10
72206;DHT22;60111;48.286;7.812;2023-07-13T14:13:28;28.40;40.40
72206;DHT22;60111;48.286;7.812;2023-07-13T14:16:02;28.50;40.00
72206;DHT22;60111;48.286;7.812;2023-07-13T14:18:35;28.50;37.50
72206;DHT22;60111;48.286;7.812;2023-07-13T14:21:15;28.20;36.60
72206;DHT22;60111;48.286;7.812;2023-07-13T14:23:49;28.00;38.00
72206;DHT22;60111;48.286;7.812;2023-07-13T14:26:23;27.80;36.70
72206;DHT22;60111;48.286;7.812;2023-07-13T14:28:57;27.80;35.70
72206;DHT22;60111;48.286;7.812;2023-07-13T14:31:29;27.90;37.10
72206;DHT22;60111;48.286;7.812;2023-07-13T14:34:02;28.10;36.90
72206;DHT22;60111;48.286;7.812;2023-07-13T14:36:43;28.10;38.10
72206;DHT22;60111;48.286;7.812;2023-07-13T14:39:21;28.30;38.30
72206;DHT22;60111;48.286;7.812;2023-07-13T14:41:55;28.60;39.00
72206;DHT22;60111;48.286;7.812;2023-07-13T14:44:28;28.90;37.40
72206;DHT22;60111;48.286;7.812;2023-07-13T14:47:03;29.10;37.90
72206;DHT22;60111;48.286;7.812;2023-07-13T14:49:43;29.30;36.20
72206;DHT22;60111;48.286;7.812;2023-07-13T14:52:21;29.50;36.70
72206;DHT22;60111;48.286;7.812;2023-07-13T14:54:54;29.50;37.00
72206;DHT22;60111;48.286;7.812;2023-07-13T14:57:27;29.60;37.40
72206;DHT22;60111;48.286;7.812;2023-07-13T14:59:59;29.70;38.50
72206;DHT22;60111;48.286;7.812;2023-07-13T15:02:34;29.80;36.90
72206;DHT22;60111;48.286;7.812;2023-07-13T15:05:17;29.90;37.90
72206;DHT22;60111;48.286;7.812;2023-07-13T15:07:56;30.10;37.90
72206;DHT22;60111;48.286;7.812;2023-07-13T15:10:33;30.20;36.20
72206;DHT22;60111;48.286;7.812;2023-07-13T15:13:20;30.20;36.00
72206;DHT22;60111;48.286;7.812;2023-07-13T15:15:54;30.00;36.00
72206;DHT22;60111;48.286;7.812;2023-07-13T15:18:27;30.10;36.20
72206;DHT22;60111;48.286;7.812;2023-07-13T15:20:59;30.30;36.70
72206;DHT22;60111;48.286;7.812;2023-07-13T15:23:34;30.50;35.20
72206;DHT22;60111;48.286;7.812;2023-07-13T15:26:11;30.40;36.60
72206;DHT22;60111;48.286;7.812;2023-07-13T15:28:46;30.40;34.80
72206;DHT22;60111;48.286;7.812;2023-07-13T15:31:24;30.30;36.30
72206;DHT22;60111;48.286;7.812;2023-07-13T15:33:58;30.20;35.70
72206;DHT22;60111;48.286;7.812;2023-07-13T15:36:31;29.90;34.80
72206;DHT22;60111;48.286;7.812;2023-07-13T15:39:04;29.80;34.90
72206;DHT22;60111;48.286;7.812;2023-07-13T15:41:37;29.40;34.30
72206;DHT22;60111;48.286;7.812;2023-07-13T15:44:26;29.00;34.30
72206;DHT22;60111;48.286;7.812;2023-07-13T15:47:00;28.70;34.90
72206;DHT22;60111;48.286;7.812;2023-07-13T15:49:34;28.50;35.20
72206;DHT22;60111;48.286;7.812;2023-07-13T15:52:25;28.30;34.90
72206;DHT22;60111;48.286;7.812;2023-07-13T15:54:55;28.10;34.60
72206;DHT22;60111;48.286;7.812;2023-07-13T15:57:29;28.10;36.40
72206;DHT22;60111;48.286;7.812;2023-07-13T16:00:02;28.30;36.60
72206;DHT22;60111;48.286;7.812;2023-07-13T16:02:37;28.40;35.60
72206;DHT22;60111;48.286;7.812;2023-07-13T16:05:09;28.60;35.80
72206;DHT22;60111;48.286;7.812;2023-07-13T16:07:47;28.60;35.90
72206;DHT22;60111;48.286;7.812;2023-07-13T16:10:27;28.70;35.40
72206;DHT22;60111;48.286;7.812;2023-07-13T16:12:56;28.70;34.00
72206;DHT22;60111;48.286;7.812;2023-07-13T16:15:29;28.60;36.10
72206;DHT22;60111;48.286;7.812;2023-07-13T16:18:02;28.60;36.10
72206;DHT22;60111;48.286;7.812;2023-07-13T16:20:36;28.50;36.40
72206;DHT22;60111;48.286;7.812;2023-07-13T16:23:10;28.40;35.50
72206;DHT22;60111;48.286;7.812;2023-07-13T16:25:44;28.20;36.00
72206;DHT22;60111;48.286;7.812;2023-07-13T16:28:17;28.10;36.80
72206;DHT22;60111;48.286;7.812;2023-07-13T16:30:49;28.10;37.80
72206;DHT22;60111;48.286;7.812;2023-07-13T16:33:22;28.30;37.60
72206;DHT22;60111;48.286;7.812;2023-07-13T16:35:55;28.50;37.40
72206;DHT22;60111;48.286;7.812;2023-07-13T16:38:28;28.60;35.20